sensor_id;sensor_type;location;lat;lon;timestamp;temperature;humidity
31311;DHT22;17937;51.508;7.534;2022-11-04T00:01:55;12.10;99.90
31311;DHT22;17937;51.508;7.534;2022-11-04T00:04:22;12.00;99.90
31311;DHT22;17937;51.508;7.534;2022-11-04T00:06:48;12.00;99.90
31311;DHT22;17937;51.508;7.534;2022-11-04T00:09:20;11.90;99.90
31311;DHT22;17937;51.508;7.534;2022-11-04T00:11:46;11.90;99.90
31311;DHT22;17937;51.508;7.534;2022-11-04T00:14:31;11.90;99.90
31311;DHT22;17937;51.508;7.534;2022-11-04T00:16:58;11.90;99.90
31311;DHT22;17937;51.508;7.534;2022-11-04T00:19:42;11.90;99.90
31311;DHT22;17937;51.508;7.534;2022-11-04T00:22:27;11.80;99.90
31311;DHT22;17937;51.508;7.534;2022-11-04T00:25:12;11.80;99.90
31311;DHT22;17937;51.508;7.534;2022-11-04T00:28:15;11.80;99.90
31311;DHT22;17937;51.508;7.534;2022-11-04T00:31:01;11.80;99.90
31311;DHT22;17937;51.508;7.534;2022-11-04T00:33:46;11.70;99.90
31311;DHT22;17937;51.508;7.534;2022-11-04T00:36:13;11.70;99.90
31311;DHT22;17937;51.508;7.534;2022-11-04T00:38:38;11.70;99.90
31311;DHT22;17937;51.508;7.534;2022-11-04T00:41:04;11.70;99.90
31311;DHT22;17937;51.508;7.534;2022-11-04T00:43:59;11.70;99.90
31311;DHT22;17937;51.508;7.534;2022-11-04T00:46:26;11.70;99.90
31311;DHT22;17937;51.508;7.534;2022-11-04T00:48:52;11.60;99.90
31311;DHT22;17937;51.508;7.534;2022-11-04T00:51:17;11.60;99.90
31311;DHT22;17937;51.508;7.534;2022-11-04T00:53:44;11.60;99.90
31311;DHT22;17937;51.508;7.534;2022-11-04T00:56:10;11.60;99.90
31311;DHT22;17937;51.508;7.534;2022-11-04T00:58:35;11.50;99.90
31311;DHT22;17937;51.508;7.534;2022-11-04T01:01:06;11.50;99.90
31311;DHT22;17937;51.508;7.534;2022-11-04T01:03:32;11.50;99.90
31311;DHT22;17937;51.508;7.534;2022-11-04T01:05:58;11.50;99.90
31311;DHT22;17937;51.508;7.534;2022-11-04T01:08:23;11.50;99.90
31311;DHT22;17937;51.508;7.534;2022-11-04T01:10:49;11.40;99.90
31311;DHT22;17937;51.508;7.534;2022-11-04T01:13:14;11.50;99.90
31311;DHT22;17937;51.508;7.534;2022-11-04T01:15:40;11.50;99.90
31311;DHT22;17937;51.508;7.534;2022-11-04T01:18:06;11.50;99.90
31311;DHT22;17937;51.508;7.534;2022-11-04T01:20:32;11.40;99.90
31311;DHT22;17937;51.508;7.534;2022-11-04T01:22:58;11.40;99.90
31311;DHT22;17937;51.508;7.534;2022-11-04T01:25:24;11.40;99.90
31311;DHT22;17937;51.508;7.534;2022-11-04T01:27:49;11.40;99.90
31311;DHT22;17937;51.508;7.534;2022-11-04T01:30:15;11.40;99.90
31311;DHT22;17937;51.508;7.534;2022-11-04T01:32:41;11.30;99.90
31311;DHT22;17937;51.508;7.534;2022-11-04T01:35:07;11.30;99.90
31311;DHT22;17937;51.508;7.534;2022-11-04T01:37:33;11.30;99.90
31311;DHT22;17937;51.508;7.534;2022-11-04T01:39:58;11.30;99.90
31311;DHT22;17937;51.508;7.534;2022-11-04T01:42:24;11.30;99.90
31311;DHT22;17937;51.508;7.534;2022-11-04T01:44:57;11.40;99.90
31311;DHT22;17937;51.508;7.534;2022-11-04T01:47:46;11.40;99.90
31311;DHT22;17937;51.508;7.534;2022-11-04T01:50:24;11.40;99.90
31311;DHT22;17937;51.508;7.534;2022-11-04T01:53:21;11.40;99.90
31311;DHT22;17937;51.508;7.534;2022-11-04T01:55:52;11.30;99.90
31311;DHT22;17937;51.508;7.534;2022-11-04T01:58:22;11.30;99.90
31311;DHT22;17937;51.508;7.534;2022-11-04T02:00:49;11.30;99.90
31311;DHT22;17937;51.508;7.534;2022-11-04T02:03:18;11.30;99.90
31311;DHT22;17937;51.508;7.534;2022-11-04T02:05:45;11.30;99.90
31311;DHT22;17937;51.508;7.534;2022-11-04T02:08:12;11.30;99.90
31311;DHT22;17937;51.508;7.534;2022-11-04T02:10:40;11.30;99.90
31311;DHT22;17937;51.508;7.534;2022-11-04T02:13:09;11.30;99.90
31311;DHT22;17937;51.508;7.534;2022-11-04T02:22:12;11.30;99.90
31311;DHT22;17937;51.508;7.534;2022-11-04T02:24:37;11.30;99.90
31311;DHT22;17937;51.508;7.534;2022-11-04T02:27:32;11.30;99.90
31311;DHT22;17937;51.508;7.534;2022-11-04T02:30:14;11.30;99.90
31311;DHT22;17937;51.508;7.534;2022-11-04T02:40:10;11.30;99.90
31311;DHT22;17937;51.508;7.534;2022-11-04T02:42:52;11.30;99.90
31311;DHT22;17937;51.508;7.534;2022-11-04T02:46:10;11.30;99.90
31311;DHT22;17937;51.508;7.534;2022-11-04T02:50:50;11.20;99.90
31311;DHT22;17937;51.508;7.534;2022-11-04T02:53:28;11.20;99.90
31311;DHT22;17937;51.508;7.534;2022-11-04T02:55:56;11.20;99.90
31311;DHT22;17937;51.508;7.534;2022-11-04T02:58:28;11.10;99.90
31311;DHT22;17937;51.508;7.534;2022-11-04T03:00:56;11.00;99.90
31311;DHT22;17937;51.508;7.534;2022-11-04T03:03:29;11.00;99.90
31311;DHT22;17937;51.508;7.534;2022-11-04T03:05:59;11.00;99.90
31311;DHT22;17937;51.508;7.534;2022-11-04T03:08:39;11.00;99.90
31311;DHT22;17937;51.508;7.534;2022-11-04T03:11:17;10.90;99.90
31311;DHT22;17937;51.508;7.534;2022-11-04T03:13:52;10.90;99.90
31311;DHT22;17937;51.508;7.534;2022-11-04T03:16:23;10.90;99.90
31311;DHT22;17937;51.508;7.534;2022-11-04T03:19:12;10.80;99.90
31311;DHT22;17937;51.508;7.534;2022-11-04T03:21:44;10.90;99.90
31311;DHT22;17937;51.508;7.534;2022-11-04T03:24:12;10.90;99.90
31311;DHT22;17937;51.508;7.534;2022-11-04T03:26:59;10.80;99.90
31311;DHT22;17937;51.508;7.534;2022-11-04T03:29:32;10.80;99.90
31311;DHT22;17937;51.508;7.534;2022-11-04T03:34:54;10.70;99.90
31311;DHT22;17937;51.508;7.534;2022-11-04T03:37:20;10.80;99.90
31311;DHT22;17937;51.508;7.534;2022-11-04T03:39:46;10.80;99.90
31311;DHT22;17937;51.508;7.534;2022-11-04T03:42:13;10.70;99.90
31311;DHT22;17937;51.508;7.534;2022-11-04T03:44:48;10.80;99.90
31311;DHT22;17937;51.508;7.534;2022-11-04T03:47:14;10.80;99.90
31311;DHT22;17937;51.508;7.534;2022-11-04T03:49:40;10.80;99.90
31311;DHT22;17937;51.508;7.534;2022-11-04T03:52:06;10.80;99.90
31311;DHT22;17937;51.508;7.534;2022-11-04T03:54:31;10.80;99.90
31311;DHT22;17937;51.508;7.534;2022-11-04T03:57:29;10.80;99.90
31311;DHT22;17937;51.508;7.534;2022-11-04T04:05:40;10.70;99.90
31311;DHT22;17937;51.508;7.534;2022-11-04T04:08:14;10.60;99.90
31311;DHT22;17937;51.508;7.534;2022-11-04T04:13:24;10.60;99.90
31311;DHT22;17937;51.508;7.534;2022-11-04T04:15:56;10.60;99.90
31311;DHT22;17937;51.508;7.534;2022-11-04T04:21:18;10.60;99.90
31311;DHT22;17937;51.508;7.534;2022-11-04T04:23:45;10.60;99.90
31311;DHT22;17937;51.508;7.534;2022-11-04T04:26:32;10.60;99.90
31311;DHT22;17937;51.508;7.534;2022-11-04T04:29:19;10.60;99.90
31311;DHT22;17937;51.508;7.534;2022-11-04T04:31:46;10.50;99.90
31311;DHT22;17937;51.508;7.534;2022-11-04T04:34:38;10.50;99.90
31311;DHT22;17937;51.508;7.534;2022-11-04T04:37:08;10.50;99.90
31311;DHT22;17937;51.508;7.534;2022-11-04T04:39:53;10.50;99.90
31311;DHT22;17937;51.508;7.534;2022-11-04T04:42:38;10.50;99.90
31311;DHT22;17937;51.508;7.534;2022-11-04T04:45:30;10.40;99.90
31311;DHT22;17937;51.508;7.534;2022-11-04T04:47:57;10.40;99.90
31311;DHT22;17937;51.508;7.534;2022-11-04T04:50:26;10.40;99.90
31311;DHT22;17937;51.508;7.534;2022-11-04T04:52:54;10.40;99.90
31311;DHT22;17937;51.508;7.534;2022-11-04T04:55:20;10.30;99.90
31311;DHT22;17937;51.508;7.534;2022-11-04T04:57:46;10.30;99.90
31311;DHT22;17937;51.508;7.534;2022-11-04T05:00:15;10.20;99.90
31311;DHT22;17937;51.508;7.534;2022-11-04T05:02:41;10.20;99.90
31311;DHT22;17937;51.508;7.534;2022-11-04T05:05:07;10.20;99.90
31311;DHT22;17937;51.508;7.534;2022-11-04T05:07:33;10.20;99.90
31311;DHT22;17937;51.508;7.534;2022-11-04T05:09:59;10.20;99.90
31311;DHT22;17937;51.508;7.534;2022-11-04T05:12:24;10.20;99.90
31311;DHT22;17937;51.508;7.534;2022-11-04T05:14:50;10.20;99.90
31311;DHT22;17937;51.508;7.534;2022-11-04T05:17:16;10.20;99.90
31311;DHT22;17937;51.508;7.534;2022-11-04T05:19:42;10.20;99.90
31311;DHT22;17937;51.508;7.534;2022-11-04T05:22:07;10.20;99.90
31311;DHT22;17937;51.508;7.534;2022-11-04T05:24:33;10.10;99.90
31311;DHT22;17937;51.508;7.534;2022-11-04T05:26:58;10.10;99.90
31311;DHT22;17937;51.508;7.534;2022-11-04T05:29:24;10.10;99.90
31311;DHT22;17937;51.508;7.534;2022-11-04T05:31:50;10.10;99.90
31311;DHT22;17937;51.508;7.534;2022-11-04T05:34:15;10.10;99.90
31311;DHT22;17937;51.508;7.534;2022-11-04T05:36:41;10.10;99.90
31311;DHT22;17937;51.508;7.534;2022-11-04T05:39:07;10.10;99.90
31311;DHT22;17937;51.508;7.534;2022-11-04T05:41:35;10.10;99.90
31311;DHT22;17937;51.508;7.534;2022-11-04T05:44:02;10.10;99.90
31311;DHT22;17937;51.508;7.534;2022-11-04T05:46:29;10.10;99.90
31311;DHT22;17937;51.508;7.534;2022-11-04T05:48:55;10.10;99.90
31311;DHT22;17937;51.508;7.534;2022-11-04T05:51:23;10.00;99.90
31311;DHT22;17937;51.508;7.534;2022-11-04T05:53:49;10.00;99.90
31311;DHT22;17937;51.508;7.534;2022-11-04T05:56:15;10.00;99.90
31311;DHT22;17937;51.508;7.534;2022-11-04T05:58:41;10.00;99.90
31311;DHT22;17937;51.508;7.534;2022-11-04T06:03:51;10.00;99.90
31311;DHT22;17937;51.508;7.534;2022-11-04T06:06:17;9.90;99.90
31311;DHT22;17937;51.508;7.534;2022-11-04T06:08:43;10.00;99.90
31311;DHT22;17937;51.508;7.534;2022-11-04T06:11:09;9.90;99.90
31311;DHT22;17937;51.508;7.534;2022-11-04T06:13:34;10.00;99.90
31311;DHT22;17937;51.508;7.534;2022-11-04T06:16:00;10.00;99.90
31311;DHT22;17937;51.508;7.534;2022-11-04T06:18:25;10.00;99.90
31311;DHT22;17937;51.508;7.534;2022-11-04T06:23:37;10.00;99.90
31311;DHT22;17937;51.508;7.534;2022-11-04T06:26:03;10.00;99.90
31311;DHT22;17937;51.508;7.534;2022-11-04T06:28:29;10.00;99.90
31311;DHT22;17937;51.508;7.534;2022-11-04T06:30:59;10.00;99.90
31311;DHT22;17937;51.508;7.534;2022-11-04T06:33:25;10.10;99.90
31311;DHT22;17937;51.508;7.534;2022-11-04T06:35:51;10.10;99.90
31311;DHT22;17937;51.508;7.534;2022-11-04T06:38:16;10.10;99.90
31311;DHT22;17937;51.508;7.534;2022-11-04T06:40:42;10.10;99.90
31311;DHT22;17937;51.508;7.534;2022-11-04T06:43:08;10.10;99.90
31311;DHT22;17937;51.508;7.534;2022-11-04T06:45:33;10.10;99.90
31311;DHT22;17937;51.508;7.534;2022-11-04T06:47:59;10.10;99.90
31311;DHT22;17937;51.508;7.534;2022-11-04T06:50:24;10.10;99.90
31311;DHT22;17937;51.508;7.534;2022-11-04T06:52:50;10.20;99.90
31311;DHT22;17937;51.508;7.534;2022-11-04T06:55:15;10.20;99.90
31311;DHT22;17937;51.508;7.534;2022-11-04T06:57:41;10.20;99.90
31311;DHT22;17937;51.508;7.534;2022-11-04T07:00:07;10.20;99.90
31311;DHT22;17937;51.508;7.534;2022-11-04T07:02:32;10.20;99.90
31311;DHT22;17937;51.508;7.534;2022-11-04T07:04:58;10.20;99.90
31311;DHT22;17937;51.508;7.534;2022-11-04T07:07:24;10.20;99.90
31311;DHT22;17937;51.508;7.534;2022-11-04T07:09:49;10.20;99.90
31311;DHT22;17937;51.508;7.534;2022-11-04T07:12:15;10.30;99.90
31311;DHT22;17937;51.508;7.534;2022-11-04T07:14:40;10.30;99.90
31311;DHT22;17937;51.508;7.534;2022-11-04T07:17:06;10.30;99.90
31311;DHT22;17937;51.508;7.534;2022-11-04T07:19:32;10.30;99.90
31311;DHT22;17937;51.508;7.534;2022-11-04T07:21:57;10.40;99.90
31311;DHT22;17937;51.508;7.534;2022-11-04T07:24:23;10.40;99.90
31311;DHT22;17937;51.508;7.534;2022-11-04T07:26:48;10.30;99.90
31311;DHT22;17937;51.508;7.534;2022-11-04T07:29:14;10.40;99.90
31311;DHT22;17937;51.508;7.534;2022-11-04T07:31:40;10.40;99.90
31311;DHT22;17937;51.508;7.534;2022-11-04T07:34:05;10.40;99.90
31311;DHT22;17937;51.508;7.534;2022-11-04T07:36:31;10.40;99.90
31311;DHT22;17937;51.508;7.534;2022-11-04T07:38:57;10.40;99.90
31311;DHT22;17937;51.508;7.534;2022-11-04T07:41:22;10.30;99.90
31311;DHT22;17937;51.508;7.534;2022-11-04T07:43:52;10.40;99.90
31311;DHT22;17937;51.508;7.534;2022-11-04T07:46:18;10.40;99.90
31311;DHT22;17937;51.508;7.534;2022-11-04T07:48:44;10.40;99.90
31311;DHT22;17937;51.508;7.534;2022-11-04T07:51:13;10.50;99.90
31311;DHT22;17937;51.508;7.534;2022-11-04T07:53:41;10.60;99.90
31311;DHT22;17937;51.508;7.534;2022-11-04T07:56:09;10.60;99.90
31311;DHT22;17937;51.508;7.534;2022-11-04T07:58:36;10.60;99.90
31311;DHT22;17937;51.508;7.534;2022-11-04T08:01:05;10.70;99.90
31311;DHT22;17937;51.508;7.534;2022-11-04T08:03:32;10.80;99.90
31311;DHT22;17937;51.508;7.534;2022-11-04T08:05:59;10.90;99.90
31311;DHT22;17937;51.508;7.534;2022-11-04T08:08:25;10.90;99.90
31311;DHT22;17937;51.508;7.534;2022-11-04T08:10:59;10.90;99.90
31311;DHT22;17937;51.508;7.534;2022-11-04T08:13:33;11.00;99.90
31311;DHT22;17937;51.508;7.534;2022-11-04T08:16:04;11.30;99.90
31311;DHT22;17937;51.508;7.534;2022-11-04T08:18:32;11.60;99.90
31311;DHT22;17937;51.508;7.534;2022-11-04T08:20:58;11.90;99.90
31311;DHT22;17937;51.508;7.534;2022-11-04T08:23:24;11.90;99.90
31311;DHT22;17937;51.508;7.534;2022-11-04T08:25:50;11.90;99.90
31311;DHT22;17937;51.508;7.534;2022-11-04T08:28:16;11.90;99.90
31311;DHT22;17937;51.508;7.534;2022-11-04T08:31:03;11.90;99.90
31311;DHT22;17937;51.508;7.534;2022-11-04T08:33:31;12.10;99.90
31311;DHT22;17937;51.508;7.534;2022-11-04T08:36:04;12.70;99.90
31311;DHT22;17937;51.508;7.534;2022-11-04T08:38:31;14.20;99.90
31311;DHT22;17937;51.508;7.534;2022-11-04T08:40:59;15.00;99.90
31311;DHT22;17937;51.508;7.534;2022-11-04T08:43:25;15.80;99.90
31311;DHT22;17937;51.508;7.534;2022-11-04T08:45:51;16.30;99.90
31311;DHT22;17937;51.508;7.534;2022-11-04T08:48:17;16.40;99.90
31311;DHT22;17937;51.508;7.534;2022-11-04T08:50:46;16.70;99.90
31311;DHT22;17937;51.508;7.534;2022-11-04T08:53:12;16.80;99.90
31311;DHT22;17937;51.508;7.534;2022-11-04T08:55:37;16.90;99.90
31311;DHT22;17937;51.508;7.534;2022-11-04T08:58:03;16.80;99.90
31311;DHT22;17937;51.508;7.534;2022-11-04T09:00:29;16.50;99.90
31311;DHT22;17937;51.508;7.534;2022-11-04T09:02:54;16.50;99.90
31311;DHT22;17937;51.508;7.534;2022-11-04T09:05:21;16.40;99.90
31311;DHT22;17937;51.508;7.534;2022-11-04T09:07:46;16.10;99.90
31311;DHT22;17937;51.508;7.534;2022-11-04T09:10:12;15.70;99.90
31311;DHT22;17937;51.508;7.534;2022-11-04T09:12:37;15.20;99.90
31311;DHT22;17937;51.508;7.534;2022-11-04T09:15:03;14.90;99.90
31311;DHT22;17937;51.508;7.534;2022-11-04T09:17:32;14.90;99.90
31311;DHT22;17937;51.508;7.534;2022-11-04T09:19:57;14.90;99.90
31311;DHT22;17937;51.508;7.534;2022-11-04T09:22:23;14.90;99.90
31311;DHT22;17937;51.508;7.534;2022-11-04T09:24:48;15.10;99.90
31311;DHT22;17937;51.508;7.534;2022-11-04T09:27:14;15.30;99.90
31311;DHT22;17937;51.508;7.534;2022-11-04T09:29:40;15.60;99.90
31311;DHT22;17937;51.508;7.534;2022-11-04T09:32:06;15.70;99.90
31311;DHT22;17937;51.508;7.534;2022-11-04T09:34:32;16.00;99.90
31311;DHT22;17937;51.508;7.534;2022-11-04T09:36:57;16.30;99.90
31311;DHT22;17937;51.508;7.534;2022-11-04T09:39:23;16.60;99.90
31311;DHT22;17937;51.508;7.534;2022-11-04T09:47:08;17.30;99.90
31311;DHT22;17937;51.508;7.534;2022-11-04T09:49:38;17.50;99.90
31311;DHT22;17937;51.508;7.534;2022-11-04T09:52:18;17.60;99.90
31311;DHT22;17937;51.508;7.534;2022-11-04T09:57:35;17.10;99.90
31311;DHT22;17937;51.508;7.534;2022-11-04T10:00:00;16.50;99.90
31311;DHT22;17937;51.508;7.534;2022-11-04T10:02:45;16.00;99.90
31311;DHT22;17937;51.508;7.534;2022-11-04T10:05:28;16.00;99.90
31311;DHT22;17937;51.508;7.534;2022-11-04T10:13:36;17.60;99.90
31311;DHT22;17937;51.508;7.534;2022-11-04T10:19:10;18.10;99.90
31311;DHT22;17937;51.508;7.534;2022-11-04T10:21:48;18.10;99.90
31311;DHT22;17937;51.508;7.534;2022-11-04T10:25:02;18.20;99.90
31311;DHT22;17937;51.508;7.534;2022-11-04T10:27:34;17.70;99.90
31311;DHT22;17937;51.508;7.534;2022-11-04T10:30:05;17.60;99.90
31311;DHT22;17937;51.508;7.534;2022-11-04T10:32:41;17.40;99.90
31311;DHT22;17937;51.508;7.534;2022-11-04T10:38:40;17.20;99.90
31311;DHT22;17937;51.508;7.534;2022-11-04T10:41:27;16.90;99.90
31311;DHT22;17937;51.508;7.534;2022-11-04T10:44:02;16.70;99.90
31311;DHT22;17937;51.508;7.534;2022-11-04T10:46:32;16.80;99.90
31311;DHT22;17937;51.508;7.534;2022-11-04T10:51:53;17.00;99.90
31311;DHT22;17937;51.508;7.534;2022-11-04T10:54:19;16.80;99.90
31311;DHT22;17937;51.508;7.534;2022-11-04T10:56:53;16.70;99.90
31311;DHT22;17937;51.508;7.534;2022-11-04T10:59:28;16.40;99.90
31311;DHT22;17937;51.508;7.534;2022-11-04T11:01:56;16.10;99.90
31311;DHT22;17937;51.508;7.534;2022-11-04T11:04:34;15.90;99.90
31311;DHT22;17937;51.508;7.534;2022-11-04T11:07:03;15.80;99.90
31311;DHT22;17937;51.508;7.534;2022-11-04T11:12:20;15.60;99.90
31311;DHT22;17937;51.508;7.534;2022-11-04T11:14:54;15.40;99.90
31311;DHT22;17937;51.508;7.534;2022-11-04T11:22:35;15.20;99.90
31311;DHT22;17937;51.508;7.534;2022-11-04T11:28:05;15.00;99.90
31311;DHT22;17937;51.508;7.534;2022-11-04T11:33:27;14.90;99.90
31311;DHT22;17937;51.508;7.534;2022-11-04T11:35:57;14.90;99.90
31311;DHT22;17937;51.508;7.534;2022-11-04T11:38:30;14.80;99.90
31311;DHT22;17937;51.508;7.534;2022-11-04T11:41:13;14.70;99.90
31311;DHT22;17937;51.508;7.534;2022-11-04T11:43:49;14.80;99.90
31311;DHT22;17937;51.508;7.534;2022-11-04T11:46:24;14.70;99.90
31311;DHT22;17937;51.508;7.534;2022-11-04T11:48:55;14.70;99.90
31311;DHT22;17937;51.508;7.534;2022-11-04T11:51:31;14.70;99.90
31311;DHT22;17937;51.508;7.534;2022-11-04T11:54:26;14.70;99.90
31311;DHT22;17937;51.508;7.534;2022-11-04T11:56:59;14.60;99.90
31311;DHT22;17937;51.508;7.534;2022-11-04T11:59:47;14.50;99.90
31311;DHT22;17937;51.508;7.534;2022-11-04T12:04:45;14.50;99.90
31311;DHT22;17937;51.508;7.534;2022-11-04T12:07:39;14.50;99.90
31311;DHT22;17937;51.508;7.534;2022-11-04T12:13:28;14.40;99.90
31311;DHT22;17937;51.508;7.534;2022-11-04T12:18:55;14.40;99.90
31311;DHT22;17937;51.508;7.534;2022-11-04T12:24:49;14.30;99.90
31311;DHT22;17937;51.508;7.534;2022-11-04T12:30:07;14.30;99.90
31311;DHT22;17937;51.508;7.534;2022-11-04T12:35:33;14.20;99.90
31311;DHT22;17937;51.508;7.534;2022-11-04T12:43:59;14.00;99.90
31311;DHT22;17937;51.508;7.534;2022-11-04T12:49:17;14.00;99.90
31311;DHT22;17937;51.508;7.534;2022-11-04T13:00:20;13.90;99.90
31311;DHT22;17937;51.508;7.534;2022-11-04T13:03:04;13.90;99.90
31311;DHT22;17937;51.508;7.534;2022-11-04T13:05:53;14.00;99.90
31311;DHT22;17937;51.508;7.534;2022-11-04T13:08:30;13.90;99.90
31311;DHT22;17937;51.508;7.534;2022-11-04T13:14:13;13.90;99.90
31311;DHT22;17937;51.508;7.534;2022-11-04T13:16:45;13.90;99.90
31311;DHT22;17937;51.508;7.534;2022-11-04T13:19:31;13.80;99.90
31311;DHT22;17937;51.508;7.534;2022-11-04T13:22:02;13.80;99.90
31311;DHT22;17937;51.508;7.534;2022-11-04T13:24:32;13.80;99.90
31311;DHT22;17937;51.508;7.534;2022-11-04T13:27:26;13.80;99.90
31311;DHT22;17937;51.508;7.534;2022-11-04T13:30:06;13.90;99.90
31311;DHT22;17937;51.508;7.534;2022-11-04T13:32:37;13.90;99.90
31311;DHT22;17937;51.508;7.534;2022-11-04T13:35:37;13.80;99.90
31311;DHT22;17937;51.508;7.534;2022-11-04T13:38:08;13.70;99.90
31311;DHT22;17937;51.508;7.534;2022-11-04T13:43:29;13.70;99.90
31311;DHT22;17937;51.508;7.534;2022-11-04T13:46:14;13.70;99.90
31311;DHT22;17937;51.508;7.534;2022-11-04T13:51:44;13.60;99.90
31311;DHT22;17937;51.508;7.534;2022-11-04T13:54:31;13.60;99.90
31311;DHT22;17937;51.508;7.534;2022-11-04T13:57:11;13.40;99.90
31311;DHT22;17937;51.508;7.534;2022-11-04T13:59:37;13.30;99.90
31311;DHT22;17937;51.508;7.534;2022-11-04T14:04:42;13.20;99.90
31311;DHT22;17937;51.508;7.534;2022-11-04T14:07:10;13.20;99.90
31311;DHT22;17937;51.508;7.534;2022-11-04T14:14:54;13.20;99.90
31311;DHT22;17937;51.508;7.534;2022-11-04T14:22:36;13.10;99.90
31311;DHT22;17937;51.508;7.534;2022-11-04T14:25:20;13.20;99.90
31311;DHT22;17937;51.508;7.534;2022-11-04T14:27:55;13.10;99.90
31311;DHT22;17937;51.508;7.534;2022-11-04T14:33:37;13.10;99.90
31311;DHT22;17937;51.508;7.534;2022-11-04T14:39:05;13.10;99.90
31311;DHT22;17937;51.508;7.534;2022-11-04T14:41:52;13.00;99.90
31311;DHT22;17937;51.508;7.534;2022-11-04T14:46:47;13.00;99.90
31311;DHT22;17937;51.508;7.534;2022-11-04T14:49:50;13.00;99.90
31311;DHT22;17937;51.508;7.534;2022-11-04T14:52:28;13.00;99.90
31311;DHT22;17937;51.508;7.534;2022-11-04T14:55:16;13.00;99.90
31311;DHT22;17937;51.508;7.534;2022-11-04T14:57:45;13.00;99.90
31311;DHT22;17937;51.508;7.534;2022-11-04T15:00:31;13.00;99.90
31311;DHT22;17937;51.508;7.534;2022-11-04T15:05:28;13.00;99.90
31311;DHT22;17937;51.508;7.534;2022-11-04T15:07:55;13.00;99.90
31311;DHT22;17937;51.508;7.534;2022-11-04T15:10:26;12.90;99.90
31311;DHT22;17937;51.508;7.534;2022-11-04T15:12:56;12.90;99.90
31311;DHT22;17937;51.508;7.534;2022-11-04T15:17:49;12.80;99.90
31311;DHT22;17937;51.508;7.534;2022-11-04T15:20:25;12.80;99.90
31311;DHT22;17937;51.508;7.534;2022-11-04T15:22:54;12.80;99.90
31311;DHT22;17937;51.508;7.534;2022-11-04T15:25:22;12.70;99.90
31311;DHT22;17937;51.508;7.534;2022-11-04T15:27:47;12.80;99.90
31311;DHT22;17937;51.508;7.534;2022-11-04T15:30:25;12.70;99.90
31311;DHT22;17937;51.508;7.534;2022-11-04T15:33:01;12.70;99.90
31311;DHT22;17937;51.508;7.534;2022-11-04T15:35:29;12.60;99.90
31311;DHT22;17937;51.508;7.534;2022-11-04T15:37:57;12.60;99.90
31311;DHT22;17937;51.508;7.534;2022-11-04T15:40:26;12.60;99.90
31311;DHT22;17937;51.508;7.534;2022-11-04T15:43:03;12.60;99.90
31311;DHT22;17937;51.508;7.534;2022-11-04T15:46:08;12.50;99.90
31311;DHT22;17937;51.508;7.534;2022-11-04T15:48:29;12.50;99.90
31311;DHT22;17937;51.508;7.534;2022-11-04T15:53:27;12.40;99.90
31311;DHT22;17937;51.508;7.534;2022-11-04T15:55:53;12.40;99.90
31311;DHT22;17937;51.508;7.534;2022-11-04T15:58:20;12.40;99.90
31311;DHT22;17937;51.508;7.534;2022-11-04T16:00:53;12.40;99.90
31311;DHT22;17937;51.508;7.534;2022-11-04T16:03:20;12.40;99.90
31311;DHT22;17937;51.508;7.534;2022-11-04T16:06:04;12.40;99.90
31311;DHT22;17937;51.508;7.534;2022-11-04T16:08:31;12.30;99.90
31311;DHT22;17937;51.508;7.534;2022-11-04T16:11:17;12.30;99.90
31311;DHT22;17937;51.508;7.534;2022-11-04T16:13:44;12.30;99.90
31311;DHT22;17937;51.508;7.534;2022-11-04T16:16:24;12.30;99.90
31311;DHT22;17937;51.508;7.534;2022-11-04T16:18:57;12.30;99.90
31311;DHT22;17937;51.508;7.534;2022-11-04T16:24:01;12.20;99.90
31311;DHT22;17937;51.508;7.534;2022-11-04T16:26:30;12.20;99.90
31311;DHT22;17937;51.508;7.534;2022-11-04T16:28:58;12.20;99.90
31311;DHT22;17937;51.508;7.534;2022-11-04T16:31:27;12.20;99.90
31311;DHT22;17937;51.508;7.534;2022-11-04T16:33:56;12.20;99.90
31311;DHT22;17937;51.508;7.534;2022-11-04T16:36:21;12.20;99.90
31311;DHT22;17937;51.508;7.534;2022-11-04T16:38:57;12.10;99.90
31311;DHT22;17937;51.508;7.534;2022-11-04T16:41:26;12.20;99.90
31311;DHT22;17937;51.508;7.534;2022-11-04T16:43:52;12.20;99.90
31311;DHT22;17937;51.508;7.534;2022-11-04T16:46:19;12.10;99.90
31311;DHT22;17937;51.508;7.534;2022-11-04T16:48:47;12.10;99.90
31311;DHT22;17937;51.508;7.534;2022-11-04T16:51:21;12.10;99.90
31311;DHT22;17937;51.508;7.534;2022-11-04T16:53:48;12.00;99.90
31311;DHT22;17937;51.508;7.534;2022-11-04T16:56:15;12.00;99.90
31311;DHT22;17937;51.508;7.534;2022-11-04T16:58:42;12.00;99.90
31311;DHT22;17937;51.508;7.534;2022-11-04T17:01:10;12.00;99.90
31311;DHT22;17937;51.508;7.534;2022-11-04T17:03:37;12.00;99.90
31311;DHT22;17937;51.508;7.534;2022-11-04T17:06:03;12.00;99.90
31311;DHT22;17937;51.508;7.534;2022-11-04T17:08:31;12.00;99.90
31311;DHT22;17937;51.508;7.534;2022-11-04T17:10:57;12.00;99.90
31311;DHT22;17937;51.508;7.534;2022-11-04T17:13:23;11.90;99.90
31311;DHT22;17937;51.508;7.534;2022-11-04T17:15:48;11.90;99.90
31311;DHT22;17937;51.508;7.534;2022-11-04T17:18:16;11.90;99.90
31311;DHT22;17937;51.508;7.534;2022-11-04T17:20:43;11.90;99.90
31311;DHT22;17937;51.508;7.534;2022-11-04T17:23:13;11.90;99.90
31311;DHT22;17937;51.508;7.534;2022-11-04T17:25:40;11.80;99.90
31311;DHT22;17937;51.508;7.534;2022-11-04T17:28:07;11.80;99.90
31311;DHT22;17937;51.508;7.534;2022-11-04T17:30:32;11.80;99.90
31311;DHT22;17937;51.508;7.534;2022-11-04T17:32:58;11.80;99.90
31311;DHT22;17937;51.508;7.534;2022-11-04T17:35:24;11.80;99.90
31311;DHT22;17937;51.508;7.534;2022-11-04T17:37:51;11.80;99.90
31311;DHT22;17937;51.508;7.534;2022-11-04T17:40:18;11.70;99.90
31311;DHT22;17937;51.508;7.534;2022-11-04T17:42:44;11.70;99.90
31311;DHT22;17937;51.508;7.534;2022-11-04T17:45:30;11.70;99.90
31311;DHT22;17937;51.508;7.534;2022-11-04T17:47:55;11.70;99.90
31311;DHT22;17937;51.508;7.534;2022-11-04T17:50:21;11.70;99.90
31311;DHT22;17937;51.508;7.534;2022-11-04T17:52:47;11.80;99.90
31311;DHT22;17937;51.508;7.534;2022-11-04T17:55:13;11.80;99.90
31311;DHT22;17937;51.508;7.534;2022-11-04T17:57:38;11.80;99.90
31311;DHT22;17937;51.508;7.534;2022-11-04T18:00:05;11.90;99.90
31311;DHT22;17937;51.508;7.534;2022-11-04T18:02:33;11.90;99.90
31311;DHT22;17937;51.508;7.534;2022-11-04T18:04:59;11.90;99.90
31311;DHT22;17937;51.508;7.534;2022-11-04T18:07:26;11.90;99.90
31311;DHT22;17937;51.508;7.534;2022-11-04T18:09:52;11.90;99.90
31311;DHT22;17937;51.508;7.534;2022-11-04T18:12:18;11.90;99.90
31311;DHT22;17937;51.508;7.534;2022-11-04T18:15:12;11.90;99.90
31311;DHT22;17937;51.508;7.534;2022-11-04T18:17:40;11.90;99.90
31311;DHT22;17937;51.508;7.534;2022-11-04T18:20:06;11.90;99.90
31311;DHT22;17937;51.508;7.534;2022-11-04T18:22:34;11.90;99.90